createdAt,value
2018-09-14T00:00:46.103Z,78.57
2018-09-14T00:01:46.124Z,78.38
2018-09-14T00:02:46.133Z,78.38
2018-09-14T00:03:46.133Z,78.57
2018-09-14T00:04:46.145Z,78.47
2018-09-14T00:05:46.167Z,78.38
2018-09-14T00:06:46.147Z,79.05
2018-09-14T00:07:46.156Z,78.96
2018-09-14T00:08:46.204Z,79.44
2018-09-14T00:09:46.214Z,79.34
2018-09-14T00:10:46.321Z,79.24
2018-09-14T00:11:46.212Z,79.91
2018-09-14T00:12:46.220Z,79.05
2018-09-14T00:13:46.203Z,79.24
2018-09-14T00:14:46.294Z,79.44
2018-09-14T00:15:46.229Z,79.53
2018-09-14T00:16:46.271Z,79.39
2018-09-14T00:17:46.269Z,79.68
2018-09-14T00:18:46.276Z,79.68
2018-09-14T00:19:46.272Z,79.44
2018-09-14T00:20:46.325Z,79.88
2018-09-14T00:21:46.289Z,79.72
2018-09-14T00:22:46.314Z,79.39
2018-09-14T00:23:46.326Z,79.72
2018-09-14T00:24:46.318Z,79.53
2018-09-14T00:25:46.341Z,79.78
2018-09-14T00:26:46.349Z,79.39
2018-09-14T00:27:46.359Z,79.78
2018-09-14T00:28:46.352Z,79.39
2018-09-14T00:29:46.371Z,79.78
2018-09-14T00:30:46.399Z,79.44
2018-09-14T00:31:46.518Z,79.53
2018-09-14T00:32:46.607Z,79.34
2018-09-14T00:33:46.396Z,79.68
2018-09-14T00:34:46.444Z,79.63
2018-09-14T00:35:46.431Z,79.88
2018-09-14T00:36:46.443Z,79.21
2018-09-14T00:37:46.455Z,79.30
2018-09-14T00:38:46.528Z,79.78
2018-09-14T00:39:46.452Z,79.68
2018-09-14T00:40:46.516Z,79.68
2018-09-14T00:41:46.506Z,79.63
2018-09-14T00:42:46.581Z,79.49
2018-09-14T00:43:46.540Z,79.11
2018-09-14T00:44:46.512Z,79.39
2018-09-14T00:45:46.569Z,79.01
2018-09-14T00:46:46.558Z,78.63
2018-09-14T00:47:46.547Z,78.82
2018-09-14T00:48:46.568Z,78.05
2018-09-14T00:49:46.589Z,77.95
2018-09-14T00:50:46.555Z,77.71
2018-09-14T00:51:46.568Z,78.77
2018-09-14T00:52:46.629Z,78.77
2018-09-14T00:53:46.593Z,78.53
2018-09-14T00:54:46.631Z,78.34
2018-09-14T00:55:46.674Z,78.34
2018-09-14T00:56:46.632Z,78.34
2018-09-14T00:57:46.672Z,78.00
2018-09-14T00:58:46.647Z,77.67
2018-09-14T00:59:46.658Z,77.71
2018-09-14T01:00:46.657Z,77.51
2018-09-14T01:01:46.658Z,77.13
2018-09-14T01:02:46.718Z,77.51
2018-09-14T01:03:46.755Z,77.42
2018-09-14T01:04:46.692Z,77.23
2018-09-14T01:05:46.730Z,77.13
2018-09-14T01:06:46.743Z,77.13
2018-09-14T01:07:46.758Z,77.13
2018-09-14T01:08:46.771Z,77.13
2018-09-14T01:09:46.779Z,76.46
2018-09-14T01:10:46.779Z,76.65
2018-09-14T01:11:46.779Z,77.04
2018-09-14T01:12:46.776Z,76.94
2018-09-14T01:13:46.782Z,76.07
2018-09-14T01:14:46.848Z,76.07
2018-09-14T01:15:46.810Z,76.27
2018-09-14T01:16:46.819Z,76.27
2018-09-14T01:17:46.843Z,76.46
2018-09-14T01:18:46.847Z,75.70
2018-09-14T01:19:46.873Z,75.40
2018-09-14T01:20:46.863Z,74.73
2018-09-14T01:21:46.885Z,74.83
2018-09-14T01:22:46.871Z,73.87
2018-09-14T01:23:46.895Z,73.77
2018-09-14T01:24:46.919Z,74.44
2018-09-14T01:25:46.918Z,74.54
2018-09-14T01:26:46.924Z,73.87
2018-09-14T01:27:46.935Z,73.58
2018-09-14T01:28:46.942Z,73.30
2018-09-14T01:29:46.964Z,73.39
2018-09-14T01:30:46.945Z,73.87
2018-09-14T01:31:46.972Z,73.68
2018-09-14T01:32:46.993Z,73.20
2018-09-14T01:33:46.971Z,73.52
2018-09-14T01:34:46.993Z,73.04
2018-09-14T01:35:47.011Z,72.85
2018-09-14T01:36:46.995Z,73.14
2018-09-14T01:37:47.063Z,72.66
2018-09-14T01:38:47.027Z,72.95
2018-09-14T01:39:47.070Z,73.14
2018-09-14T01:40:47.039Z,72.95
2018-09-14T01:41:47.066Z,73.24
2018-09-14T01:42:47.091Z,73.43
2018-09-14T01:43:47.092Z,73.62
2018-09-14T01:44:47.119Z,74.01
2018-09-14T01:45:47.094Z,73.33
2018-09-14T01:46:47.108Z,73.52
2018-09-14T01:47:47.139Z,74.29
2018-09-14T01:48:47.119Z,73.62
2018-09-14T01:49:47.149Z,73.91
2018-09-14T01:50:47.178Z,73.52
2018-09-14T01:51:47.172Z,74.10
2018-09-14T01:52:47.168Z,74.39
2018-09-14T01:53:47.173Z,73.91
2018-09-14T01:54:47.238Z,73.62
2018-09-14T01:55:47.192Z,73.43
2018-09-14T01:56:47.233Z,73.72
2018-09-14T01:57:47.223Z,74.01
2018-09-14T01:58:47.235Z,73.81
2018-09-14T01:59:47.240Z,74.01
2018-09-14T02:00:47.218Z,73.43
2018-09-14T02:01:47.259Z,73.62
2018-09-14T02:02:47.267Z,74.39
2018-09-14T02:03:47.293Z,73.24
2018-09-14T02:04:47.268Z,72.85
2018-09-14T02:05:47.305Z,73.33
2018-09-14T02:06:47.304Z,73.81
2018-09-14T02:07:47.321Z,74.01
2018-09-14T02:08:47.344Z,73.33
2018-09-14T02:09:47.358Z,73.14
2018-09-14T02:10:47.312Z,73.43
2018-09-14T02:11:47.343Z,73.14
2018-09-14T02:12:47.402Z,73.14
2018-09-14T02:13:47.348Z,72.75
2018-09-14T02:14:47.402Z,73.14
2018-09-14T02:15:47.361Z,72.66
2018-09-14T02:16:47.392Z,72.47
2018-09-14T02:17:47.413Z,71.98
2018-09-14T02:18:47.430Z,72.47
2018-09-14T02:19:47.463Z,72.75
2018-09-14T02:20:47.456Z,72.08
2018-09-14T02:21:47.435Z,72.08
2018-09-14T02:22:47.452Z,71.89
2018-09-14T02:23:47.449Z,71.89
2018-09-14T02:24:47.457Z,71.80
2018-09-14T02:25:47.501Z,71.89
2018-09-14T02:26:47.558Z,72.18
2018-09-14T02:27:47.486Z,71.89
2018-09-14T02:28:47.500Z,71.86
2018-09-14T02:29:47.521Z,71.80
2018-09-14T02:30:47.581Z,71.86
2018-09-14T02:31:47.552Z,72.05
2018-09-14T02:32:47.537Z,71.66
2018-09-14T02:33:47.554Z,71.86
2018-09-14T02:34:47.574Z,71.76
2018-09-14T02:35:47.609Z,71.86
2018-09-14T02:36:47.586Z,72.63
2018-09-14T02:37:47.608Z,72.43
2018-09-14T02:38:47.602Z,72.14
2018-09-14T02:39:47.625Z,72.24
2018-09-14T02:40:47.625Z,72.24
2018-09-14T02:41:47.672Z,72.53
2018-09-14T02:42:47.647Z,72.14
2018-09-14T02:43:47.635Z,72.33
2018-09-14T02:44:47.656Z,72.24
2018-09-14T02:45:47.717Z,72.72
2018-09-14T02:46:47.698Z,72.91
2018-09-14T02:47:47.735Z,72.91
2018-09-14T02:48:47.721Z,72.81
2018-09-14T02:49:47.722Z,72.53
2018-09-14T02:50:47.711Z,72.24
2018-09-14T02:51:47.736Z,72.72
2018-09-14T02:52:47.795Z,73.20
2018-09-14T02:53:47.744Z,73.20
2018-09-14T02:54:47.763Z,73.30
2018-09-14T02:55:47.788Z,72.81
2018-09-14T02:56:47.766Z,72.81
2018-09-14T02:57:47.797Z,73.49
2018-09-14T02:58:47.781Z,73.30
2018-09-14T02:59:47.812Z,73.68
2018-09-14T03:00:47.839Z,73.68
2018-09-14T03:01:47.823Z,73.39
2018-09-14T03:02:47.827Z,73.39
2018-09-14T03:03:47.885Z,73.77
2018-09-14T03:04:47.837Z,73.30
2018-09-14T03:05:47.886Z,73.68
2018-09-14T03:06:47.877Z,73.68
2018-09-14T03:07:47.896Z,73.39
2018-09-14T03:08:47.909Z,73.30
2018-09-14T03:09:47.936Z,73.30
2018-09-14T03:10:47.932Z,73.10
2018-09-14T03:11:47.924Z,73.49
2018-09-14T03:12:47.936Z,73.10
2018-09-14T03:13:47.925Z,73.49
2018-09-14T03:14:47.944Z,73.39
2018-09-14T03:15:47.969Z,73.97
2018-09-14T03:16:47.979Z,73.97
2018-09-14T03:17:48.016Z,74.02
2018-09-14T03:18:47.997Z,73.55
2018-09-14T03:19:48.010Z,74.16
2018-09-14T03:20:48.032Z,74.69
2018-09-14T03:21:48.093Z,74.41
2018-09-14T03:22:48.019Z,74.02
2018-09-14T03:23:48.032Z,74.31
2018-09-14T03:24:48.043Z,73.87
2018-09-14T03:25:48.027Z,74.31
2018-09-14T03:26:48.113Z,74.02
2018-09-14T03:27:48.071Z,74.22
2018-09-14T03:28:48.115Z,73.87
2018-09-14T03:29:48.069Z,74.22
2018-09-14T03:30:48.126Z,73.87
2018-09-14T03:31:48.674Z,73.45
2018-09-14T03:32:48.107Z,73.77
2018-09-14T03:33:48.145Z,73.68
2018-09-14T03:34:48.123Z,73.68
2018-09-14T03:35:48.145Z,73.68
2018-09-14T03:36:48.152Z,73.87
2018-09-14T03:37:48.149Z,73.68
2018-09-14T03:38:48.202Z,73.58
2018-09-14T03:39:48.207Z,73.58
2018-09-14T03:40:48.180Z,73.77
2018-09-14T03:41:48.235Z,73.77
2018-09-14T03:42:48.245Z,73.49
2018-09-14T03:43:48.207Z,73.49
2018-09-14T03:44:48.255Z,73.87
2018-09-14T03:45:48.245Z,73.39
2018-09-14T03:46:48.272Z,73.58
2018-09-14T03:47:48.252Z,73.49
2018-09-14T03:48:48.289Z,73.20
2018-09-14T03:49:48.395Z,73.30
2018-09-14T03:50:48.285Z,73.39
2018-09-14T03:51:48.303Z,73.30
2018-09-14T03:52:48.309Z,73.68
2018-09-14T03:53:48.332Z,73.68
2018-09-14T03:54:48.583Z,73.30
2018-09-14T03:55:48.346Z,73.49
2018-09-14T03:56:48.365Z,73.39
2018-09-14T03:57:48.493Z,73.49
2018-09-14T03:58:48.339Z,73.30
2018-09-14T03:59:48.372Z,73.39
2018-09-14T04:00:48.384Z,73.30
2018-09-14T04:01:48.400Z,73.00
2018-09-14T04:02:48.384Z,72.43
2018-09-14T04:03:48.444Z,72.91
2018-09-14T04:04:48.535Z,72.56
2018-09-14T04:05:48.434Z,72.56
2018-09-14T04:06:48.455Z,72.43
2018-09-14T04:07:48.732Z,72.43
2018-09-14T04:08:48.447Z,72.47
2018-09-14T04:09:48.476Z,72.53
2018-09-14T04:10:48.501Z,72.56
2018-09-14T04:11:48.493Z,72.95
2018-09-14T04:12:48.482Z,72.95
2018-09-14T04:13:48.553Z,72.56
2018-09-14T04:14:48.508Z,72.56
2018-09-14T04:15:48.525Z,72.37
2018-09-14T04:16:48.562Z,72.75
2018-09-14T04:17:48.726Z,72.56
2018-09-14T04:18:48.547Z,72.28
2018-09-14T04:19:48.558Z,72.47
2018-09-14T04:20:48.566Z,72.47
2018-09-14T04:21:48.593Z,72.47
2018-09-14T04:22:48.601Z,71.70
2018-09-14T04:23:48.663Z,72.47
2018-09-14T04:24:48.639Z,72.28
2018-09-14T04:25:48.676Z,72.37
2018-09-14T04:26:48.616Z,72.28
2018-09-14T04:27:48.640Z,72.47
2018-09-14T04:28:48.634Z,71.89
2018-09-14T04:29:48.691Z,72.18
2018-09-14T04:30:48.654Z,72.37
2018-09-14T04:31:48.673Z,72.66
2018-09-14T04:32:48.668Z,71.80
2018-09-14T04:33:48.826Z,71.98
2018-09-14T04:34:48.740Z,71.31
2018-09-14T04:35:48.707Z,71.41
2018-09-14T04:36:48.749Z,71.51
2018-09-14T04:37:48.779Z,71.31
2018-09-14T04:38:48.777Z,71.70
2018-09-14T04:39:48.773Z,71.98
2018-09-14T04:40:48.786Z,71.70
2018-09-14T04:41:48.753Z,71.31
2018-09-14T04:42:48.808Z,71.31
2018-09-14T04:43:48.801Z,72.18
2018-09-14T04:44:48.857Z,71.80
2018-09-14T04:45:48.811Z,71.41
2018-09-14T04:46:48.808Z,71.31
2018-09-14T04:47:48.831Z,71.03
2018-09-14T04:48:48.849Z,71.12
2018-09-14T04:49:48.942Z,70.84
2018-09-14T04:50:48.847Z,71.03
2018-09-14T04:51:48.865Z,71.12
2018-09-14T04:52:48.909Z,71.12
2018-09-14T04:53:48.982Z,71.31
2018-09-14T04:54:48.884Z,71.12
2018-09-14T04:55:48.926Z,71.03
2018-09-14T04:56:49.017Z,70.84
2018-09-14T04:57:48.931Z,70.93
2018-09-14T04:58:48.932Z,71.31
2018-09-14T04:59:48.953Z,71.41
2018-09-14T05:00:48.949Z,71.31
2018-09-14T05:01:48.976Z,71.31
2018-09-14T05:02:48.973Z,71.41
2018-09-14T05:03:49.024Z,71.70
2018-09-14T05:04:48.985Z,71.98
2018-09-14T05:05:48.993Z,71.70
2018-09-14T05:06:49.019Z,72.08
2018-09-14T05:07:49.029Z,71.61
2018-09-14T05:08:49.066Z,72.08
2018-09-14T05:09:49.028Z,71.80
2018-09-14T05:10:49.081Z,72.08
2018-09-14T05:11:49.091Z,72.37
2018-09-14T05:12:49.063Z,71.80
2018-09-14T05:13:49.089Z,72.28
2018-09-14T05:14:49.101Z,72.08
2018-09-14T05:15:49.098Z,71.89
2018-09-14T05:16:49.429Z,72.37
2018-09-14T05:17:49.144Z,71.70
2018-09-14T05:18:49.124Z,71.89
2018-09-14T05:19:49.147Z,72.47
2018-09-14T05:20:49.181Z,72.37
2018-09-14T05:21:49.212Z,72.56
2018-09-14T05:22:49.200Z,72.95
2018-09-14T05:23:49.220Z,72.18
2018-09-14T05:24:49.235Z,72.56
2018-09-14T05:25:49.228Z,72.75
2018-09-14T05:26:49.199Z,73.33
2018-09-14T05:27:49.256Z,73.43
2018-09-14T05:28:49.286Z,72.66
2018-09-14T05:29:49.301Z,73.24
2018-09-14T05:30:49.254Z,73.04
2018-09-14T05:31:49.259Z,73.04
2018-09-14T05:32:49.280Z,72.95
2018-09-14T05:33:49.303Z,73.04
2018-09-14T05:34:49.272Z,73.04
2018-09-14T05:35:49.291Z,73.04
2018-09-14T05:36:49.311Z,73.14
2018-09-14T05:37:49.328Z,72.95
2018-09-14T05:38:49.327Z,72.75
2018-09-14T05:39:49.372Z,72.56
2018-09-14T05:40:49.426Z,72.75
2018-09-14T05:41:49.350Z,73.04
2018-09-14T05:42:49.393Z,72.37
2018-09-14T05:43:49.359Z,72.66
2018-09-14T05:44:49.398Z,72.47
2018-09-14T05:45:49.455Z,72.85
2018-09-14T05:46:49.426Z,72.56
2018-09-14T05:47:49.427Z,72.28
2018-09-14T05:48:49.766Z,72.37
2018-09-14T05:49:49.451Z,72.47
2018-09-14T05:50:49.496Z,72.56
2018-09-14T05:51:49.570Z,72.95
2018-09-14T05:52:49.466Z,72.79
2018-09-14T05:53:49.471Z,72.50
2018-09-14T05:54:49.493Z,72.89
2018-09-14T05:55:49.527Z,72.60
2018-09-14T05:56:49.496Z,72.02
2018-09-14T05:57:49.511Z,71.83
2018-09-14T05:58:49.614Z,72.50
2018-09-14T05:59:49.507Z,72.50
2018-09-14T06:00:49.553Z,71.93
2018-09-14T06:01:49.595Z,71.93
2018-09-14T06:02:49.578Z,71.73
2018-09-14T06:03:49.561Z,71.83
2018-09-14T06:04:49.581Z,71.73
2018-09-14T06:05:49.710Z,72.02
2018-09-14T06:06:49.600Z,71.64
2018-09-14T06:07:49.610Z,72.12
2018-09-14T06:08:49.631Z,72.41
2018-09-14T06:09:49.640Z,71.64
2018-09-14T06:10:49.663Z,72.12
2018-09-14T06:11:49.635Z,71.64
2018-09-14T06:12:49.724Z,71.73
2018-09-14T06:13:49.649Z,72.02
2018-09-14T06:14:49.680Z,71.73
2018-09-14T06:15:49.707Z,71.64
2018-09-14T06:16:49.685Z,71.45
2018-09-14T06:17:49.712Z,71.45
2018-09-14T06:18:49.768Z,71.93
2018-09-14T06:19:49.769Z,71.93
2018-09-14T06:20:49.748Z,71.73
2018-09-14T06:21:49.739Z,71.64
2018-09-14T06:22:49.778Z,71.73
2018-09-14T06:23:49.769Z,71.83
2018-09-14T06:24:49.788Z,71.73
2018-09-14T06:25:49.818Z,72.12
2018-09-14T06:26:49.806Z,71.16
2018-09-14T06:27:49.831Z,71.16
2018-09-14T06:28:49.811Z,71.35
2018-09-14T06:29:49.891Z,71.25
2018-09-14T06:30:49.877Z,71.35
2018-09-14T06:31:49.856Z,70.78
2018-09-14T06:32:49.862Z,70.97
2018-09-14T06:33:49.868Z,71.06
2018-09-14T06:34:49.944Z,70.97
2018-09-14T06:35:49.938Z,71.35
2018-09-14T06:36:49.904Z,71.64
2018-09-14T06:37:49.916Z,71.35
2018-09-14T06:38:49.932Z,71.06
2018-09-14T06:39:49.965Z,71.16
2018-09-14T06:40:50.055Z,70.49
2018-09-14T06:41:50.020Z,70.97
2018-09-14T06:42:49.959Z,71.35
2018-09-14T06:43:50.008Z,71.45
2018-09-14T06:44:50.045Z,70.97
2018-09-14T06:45:50.010Z,70.87
2018-09-14T06:46:49.985Z,70.78
2018-09-14T06:47:50.011Z,71.06
2018-09-14T06:48:50.067Z,70.43
2018-09-14T06:49:50.036Z,70.04
2018-09-14T06:50:50.046Z,70.01
2018-09-14T06:51:50.044Z,70.04
2018-09-14T06:52:50.067Z,70.04
2018-09-14T06:53:50.108Z,70.23
2018-09-14T06:54:50.094Z,69.66
2018-09-14T06:55:50.139Z,69.27
2018-09-14T06:56:50.150Z,69.95
2018-09-14T06:57:50.154Z,68.79
2018-09-14T06:58:50.148Z,69.18
2018-09-14T06:59:50.158Z,68.70
2018-09-14T07:00:50.155Z,69.46
2018-09-14T07:01:50.147Z,68.89
2018-09-14T07:02:50.160Z,68.60
2018-09-14T07:03:50.256Z,68.70
2018-09-14T07:04:50.185Z,69.18
2018-09-14T07:05:50.226Z,69.08
2018-09-14T07:06:50.218Z,68.70
2018-09-14T07:07:50.219Z,69.75
2018-09-14T07:08:50.257Z,69.46
2018-09-14T07:09:50.248Z,69.69
2018-09-14T07:10:50.318Z,68.89
2018-09-14T07:11:50.424Z,69.50
2018-09-14T07:12:50.383Z,69.60
2018-09-14T07:13:50.284Z,69.02
2018-09-14T07:14:50.296Z,68.54
2018-09-14T07:15:50.340Z,68.44
2018-09-14T07:16:50.321Z,68.63
2018-09-14T07:17:50.308Z,67.86
2018-09-14T07:18:50.328Z,68.25
2018-09-14T07:19:50.340Z,68.25
2018-09-14T07:20:50.387Z,68.44
2018-09-14T07:21:50.498Z,68.06
2018-09-14T07:22:50.378Z,67.10
2018-09-14T07:23:50.384Z,67.19
2018-09-14T07:24:50.536Z,67.19
2018-09-14T07:25:50.478Z,66.91
2018-09-14T07:26:50.437Z,67.00
2018-09-14T07:27:50.463Z,67.19
2018-09-14T07:28:50.580Z,66.42
2018-09-14T07:29:50.539Z,67.25
2018-09-14T07:30:50.528Z,67.10
2018-09-14T07:31:50.562Z,67.93
2018-09-14T07:32:50.497Z,67.07
2018-09-14T07:33:50.532Z,67.16
2018-09-14T07:34:50.506Z,67.25
2018-09-14T07:35:50.550Z,68.06
2018-09-14T07:36:50.537Z,67.38
2018-09-14T07:37:50.528Z,67.77
2018-09-14T07:38:50.568Z,67.77
2018-09-14T07:39:50.557Z,67.38
2018-09-14T07:40:50.632Z,66.81
2018-09-14T07:41:50.638Z,67.10
2018-09-14T07:42:50.584Z,67.19
2018-09-14T07:43:50.611Z,66.94
2018-09-14T07:44:50.623Z,66.74
2018-09-14T07:45:50.708Z,67.22
2018-09-14T07:46:50.635Z,66.84
2018-09-14T07:47:50.681Z,67.32
2018-09-14T07:48:50.660Z,67.03
2018-09-14T07:49:50.708Z,66.84
2018-09-14T07:50:50.698Z,66.52
2018-09-14T07:51:50.701Z,67.03
2018-09-14T07:52:50.728Z,66.84
2018-09-14T07:53:50.718Z,66.74
2018-09-14T07:54:50.731Z,66.84
2018-09-14T07:55:50.721Z,66.46
2018-09-14T07:56:50.790Z,66.17
2018-09-14T07:57:51.331Z,65.69
2018-09-14T07:58:50.908Z,66.27
2018-09-14T07:59:50.840Z,65.78
2018-09-14T08:00:50.794Z,66.94
2018-09-14T08:01:51.663Z,66.84
2018-09-14T08:02:50.821Z,67.07
2018-09-14T08:03:50.841Z,66.49
2018-09-14T08:04:50.854Z,66.78
2018-09-14T08:05:50.844Z,66.58
2018-09-14T08:06:50.860Z,65.72
2018-09-14T08:07:50.901Z,65.05
2018-09-14T08:08:50.881Z,64.28
2018-09-14T08:09:50.880Z,65.43
2018-09-14T08:10:50.888Z,64.37
2018-09-14T08:11:51.008Z,63.67
2018-09-14T08:12:50.946Z,64.47
2018-09-14T08:13:50.940Z,65.05
2018-09-14T08:14:51.277Z,65.33
2018-09-14T08:15:50.972Z,64.95
2018-09-14T08:16:53.551Z,65.05
2018-09-14T08:17:51.125Z,64.86
2018-09-14T08:18:51.021Z,64.31
2018-09-14T08:19:51.033Z,64.47
2018-09-14T08:20:51.915Z,64.21
2018-09-14T08:21:52.233Z,63.73
2018-09-14T08:22:51.083Z,63.64
2018-09-14T08:23:51.053Z,63.34
2018-09-14T08:24:51.203Z,64.02
2018-09-14T08:25:51.872Z,62.87
2018-09-14T08:26:52.634Z,62.87
2018-09-14T08:27:51.257Z,62.38
2018-09-14T08:28:51.375Z,62.67
2018-09-14T08:29:51.374Z,62.38
2018-09-14T08:30:51.259Z,62.00
2018-09-14T08:31:51.157Z,61.80
2018-09-14T08:32:51.634Z,62.00
2018-09-14T08:33:51.535Z,61.90
2018-09-14T08:34:51.383Z,61.42
2018-09-14T08:35:51.311Z,61.61
2018-09-14T08:36:51.238Z,61.04
2018-09-14T08:37:51.221Z,60.55
2018-09-14T08:38:51.344Z,60.17
2018-09-14T08:39:51.249Z,60.30
2018-09-14T08:40:51.333Z,60.68
2018-09-14T08:41:51.250Z,61.25
2018-09-14T08:42:51.264Z,60.49
2018-09-14T08:43:51.388Z,60.39
2018-09-14T08:44:51.515Z,60.58
2018-09-14T08:45:51.320Z,59.43
2018-09-14T08:46:51.357Z,60.30
2018-09-14T08:47:51.394Z,60.10
2018-09-14T08:48:51.348Z,60.20
2018-09-14T08:49:51.349Z,60.20
2018-09-14T08:50:51.360Z,60.13
2018-09-14T08:51:51.395Z,60.13
2018-09-14T08:52:51.407Z,59.94
2018-09-14T08:53:51.401Z,59.75
2018-09-14T08:54:51.420Z,60.42
2018-09-14T08:55:51.455Z,60.52
2018-09-14T08:56:51.451Z,59.94
2018-09-14T08:57:51.690Z,60.23
2018-09-14T08:58:51.498Z,60.23
2018-09-14T08:59:52.153Z,60.06
2018-09-14T09:00:51.472Z,59.00
2018-09-14T09:01:51.594Z,57.94
2018-09-14T09:02:51.539Z,58.40
2018-09-14T09:03:51.584Z,57.05
2018-09-14T09:04:51.549Z,58.11
2018-09-14T09:05:52.198Z,57.72
2018-09-14T09:06:51.578Z,57.62
2018-09-14T09:07:51.598Z,58.88
2018-09-14T09:08:51.613Z,57.82
2018-09-14T09:09:51.586Z,57.92
2018-09-14T09:10:51.588Z,58.20
2018-09-14T09:11:51.621Z,57.53
2018-09-14T09:12:51.674Z,57.82
2018-09-14T09:13:51.647Z,57.92
2018-09-14T09:14:51.673Z,58.01
2018-09-14T09:15:51.676Z,57.24
2018-09-14T09:16:51.658Z,57.34
2018-09-14T09:17:51.798Z,57.92
2018-09-14T09:18:51.771Z,58.78
2018-09-14T09:19:51.770Z,58.40
2018-09-14T09:20:51.726Z,58.88
2018-09-14T09:21:51.711Z,58.33
2018-09-14T09:22:51.754Z,58.14
2018-09-14T09:23:51.834Z,57.94
2018-09-14T09:24:51.792Z,57.56
2018-09-14T09:25:51.799Z,58.23
2018-09-14T09:26:51.831Z,57.75
2018-09-14T09:27:51.799Z,57.37
2018-09-14T09:28:51.853Z,56.98
2018-09-14T09:29:51.812Z,57.27
2018-09-14T09:30:51.858Z,57.37
2018-09-14T09:31:51.865Z,56.79
2018-09-14T09:32:51.889Z,56.69
2018-09-14T09:33:51.889Z,56.98
2018-09-14T09:34:51.900Z,57.17
2018-09-14T09:35:51.920Z,56.49
2018-09-14T09:36:51.908Z,57.07
2018-09-14T09:38:00.100Z,56.69
2018-09-14T09:38:53.059Z,56.59
2018-09-14T09:39:52.012Z,56.37
2018-09-14T09:40:51.946Z,57.24
2018-09-14T09:41:51.982Z,57.14
2018-09-14T09:42:51.989Z,56.09
2018-09-14T09:43:52.010Z,56.09
2018-09-14T09:44:52.041Z,56.27
2018-09-14T09:45:52.114Z,56.18
2018-09-14T09:46:52.042Z,56.66
2018-09-14T09:47:52.953Z,56.37
2018-09-14T09:48:52.155Z,56.09
2018-09-14T09:49:52.055Z,56.59
2018-09-14T09:50:52.191Z,57.14
2018-09-14T09:51:52.083Z,56.57
2018-09-14T09:52:52.109Z,56.47
2018-09-14T09:53:52.130Z,56.76
2018-09-14T09:54:52.135Z,56.27
2018-09-14T09:55:52.158Z,55.89
2018-09-14T09:56:52.135Z,56.47
2018-09-14T09:57:52.189Z,56.37
2018-09-14T09:58:52.167Z,56.57
2018-09-14T09:59:52.179Z,56.47
2018-09-14T10:00:52.217Z,56.85
2018-09-14T10:01:52.400Z,57.14
2018-09-14T10:02:52.248Z,56.57
2018-09-14T10:03:52.497Z,56.85
2018-09-14T10:04:52.258Z,56.47
2018-09-14T10:05:52.242Z,56.66
2018-09-14T10:06:52.302Z,57.05
2018-09-14T10:07:52.515Z,56.88
2018-09-14T10:08:52.322Z,57.56
2018-09-14T10:09:52.395Z,57.56
2018-09-14T10:10:52.326Z,57.07
2018-09-14T10:11:52.432Z,56.69
2018-09-14T10:12:52.369Z,56.88
2018-09-14T10:13:52.425Z,56.59
2018-09-14T10:14:52.380Z,56.40
2018-09-14T10:15:52.377Z,56.01
2018-09-14T10:16:52.385Z,56.21
2018-09-14T10:17:52.408Z,56.49
2018-09-14T10:18:52.442Z,57.07
2018-09-14T10:19:52.441Z,57.27
2018-09-14T10:20:52.471Z,56.49
2018-09-14T10:21:52.544Z,56.79
2018-09-14T10:22:52.478Z,57.07
2018-09-14T10:23:52.777Z,56.91
2018-09-14T10:24:52.712Z,56.62
2018-09-14T10:25:52.502Z,56.72
2018-09-14T10:26:52.548Z,55.76
2018-09-14T10:27:52.514Z,55.18
2018-09-14T10:28:52.621Z,55.08
2018-09-14T10:29:52.521Z,55.27
2018-09-14T10:30:52.662Z,55.76
2018-09-14T10:31:53.058Z,55.85
2018-09-14T10:32:52.584Z,55.94
2018-09-14T10:33:52.618Z,56.72
2018-09-14T10:34:52.657Z,56.91
2018-09-14T10:35:52.601Z,55.94
2018-09-14T10:36:52.685Z,55.66
2018-09-14T10:37:52.621Z,55.94
2018-09-14T10:38:52.632Z,55.94
2018-09-14T10:39:52.675Z,56.33
2018-09-14T10:40:52.772Z,56.24
2018-09-14T10:41:52.717Z,55.59
2018-09-14T10:42:52.762Z,55.98
2018-09-14T10:43:52.711Z,55.98
2018-09-14T10:44:52.719Z,55.98
2018-09-14T10:45:52.773Z,55.59
2018-09-14T10:46:52.762Z,55.20
2018-09-14T10:47:52.751Z,54.91
2018-09-14T10:48:52.798Z,55.98
2018-09-14T10:49:52.771Z,56.65
2018-09-14T10:50:52.809Z,56.07
2018-09-14T10:51:52.817Z,55.68
2018-09-14T10:52:52.902Z,55.40
2018-09-14T10:53:52.845Z,55.10
2018-09-14T10:54:52.906Z,55.10
2018-09-14T10:55:52.916Z,54.82
2018-09-14T10:56:52.886Z,54.72
2018-09-14T10:57:52.906Z,54.14
2018-09-14T10:58:52.922Z,54.91
2018-09-14T10:59:52.892Z,55.10
2018-09-14T11:00:53.005Z,54.33
2018-09-14T11:01:52.934Z,54.82
2018-09-14T11:02:52.921Z,55.10
2018-09-14T11:03:52.987Z,54.53
2018-09-14T11:04:52.959Z,54.72
2018-09-14T11:05:53.005Z,55.20
2018-09-14T11:06:52.985Z,55.49
2018-09-14T11:07:53.255Z,55.40
2018-09-14T11:08:53.027Z,55.68
2018-09-14T11:09:53.072Z,55.68
2018-09-14T11:10:53.059Z,56.07
2018-09-14T11:11:53.051Z,55.40
2018-09-14T11:12:53.127Z,55.40
2018-09-14T11:13:53.217Z,54.91
2018-09-14T11:14:53.111Z,55.40
2018-09-14T11:15:53.090Z,55.10
2018-09-14T11:16:53.138Z,55.98
2018-09-14T11:17:53.139Z,56.00
2018-09-14T11:18:53.223Z,56.20
2018-09-14T11:19:53.159Z,56.48
2018-09-14T11:20:53.150Z,56.00
2018-09-14T11:21:53.200Z,56.00
2018-09-14T11:22:53.179Z,56.20
2018-09-14T11:23:53.196Z,56.00
2018-09-14T11:24:53.337Z,56.00
2018-09-14T11:25:53.232Z,55.90
2018-09-14T11:26:53.219Z,55.23
2018-09-14T11:27:53.279Z,55.90
2018-09-14T11:28:53.245Z,55.52
2018-09-14T11:29:53.326Z,54.94
2018-09-14T11:30:53.388Z,55.45
2018-09-14T11:31:53.290Z,55.13
2018-09-14T11:32:53.372Z,55.07
2018-09-14T11:33:53.316Z,55.16
2018-09-14T11:34:53.316Z,54.58
2018-09-14T11:35:53.348Z,53.81
2018-09-14T11:36:53.358Z,54.19
2018-09-14T11:37:53.509Z,53.33
2018-09-14T11:38:53.385Z,54.19
2018-09-14T11:39:53.497Z,54.19
2018-09-14T11:40:53.455Z,54.68
2018-09-14T11:41:53.456Z,53.33
2018-09-14T11:42:53.450Z,51.97
2018-09-14T11:43:53.467Z,52.26
2018-09-14T11:44:53.473Z,52.65
2018-09-14T11:45:53.505Z,52.07
2018-09-14T11:46:53.491Z,51.49
2018-09-14T11:47:53.491Z,51.87
2018-09-14T11:48:53.540Z,51.97
2018-09-14T11:49:53.520Z,52.36
2018-09-14T11:50:53.551Z,53.03
2018-09-14T11:51:53.569Z,53.91
2018-09-14T11:52:53.589Z,53.61
2018-09-14T11:53:53.580Z,53.42
2018-09-14T11:54:53.638Z,53.33
2018-09-14T11:55:53.653Z,53.52
2018-09-14T11:56:53.605Z,53.91
2018-09-14T11:57:53.652Z,53.45
2018-09-14T11:58:54.353Z,53.93
2018-09-14T11:59:53.682Z,53.93
2018-09-14T12:00:53.675Z,53.45
2018-09-14T12:01:53.733Z,53.06
2018-09-14T12:02:53.696Z,52.39
2018-09-14T12:03:53.695Z,52.29
2018-09-14T12:04:53.747Z,53.25
2018-09-14T12:05:53.812Z,53.64
2018-09-14T12:06:53.759Z,53.55
2018-09-14T12:07:53.750Z,53.93
2018-09-14T12:08:53.779Z,53.45
2018-09-14T12:09:53.943Z,53.16
2018-09-14T12:10:54.118Z,52.48
2018-09-14T12:11:53.826Z,52.48
2018-09-14T12:12:53.808Z,53.16
2018-09-14T12:13:53.962Z,52.77
2018-09-14T12:14:53.832Z,52.58
2018-09-14T12:15:53.853Z,51.03
2018-09-14T12:16:53.945Z,50.93
2018-09-14T12:17:53.930Z,51.03
2018-09-14T12:18:53.913Z,51.03
2018-09-14T12:19:53.918Z,52.00
2018-09-14T12:20:53.938Z,51.71
2018-09-14T12:21:53.989Z,51.51
2018-09-14T12:22:53.988Z,52.19
2018-09-14T12:23:53.961Z,53.16
2018-09-14T12:24:53.990Z,53.64
2018-09-14T12:25:53.983Z,52.80
2018-09-14T12:26:54.021Z,52.80
2018-09-14T12:27:54.005Z,51.83
2018-09-14T12:28:54.063Z,50.86
2018-09-14T12:29:54.070Z,51.83
2018-09-14T12:30:54.040Z,50.67
2018-09-14T12:31:54.181Z,50.76
2018-09-14T12:32:54.116Z,50.86
2018-09-14T12:33:54.080Z,50.48
2018-09-14T12:34:54.111Z,50.67
2018-09-14T12:35:54.116Z,50.67
2018-09-14T12:36:54.136Z,50.28
2018-09-14T12:37:54.247Z,50.38
2018-09-14T12:38:54.176Z,50.57
2018-09-14T12:39:54.194Z,50.96
2018-09-14T12:40:54.217Z,50.38
2018-09-14T12:41:54.195Z,49.90
2018-09-14T12:42:54.224Z,49.70
2018-09-14T12:43:54.329Z,50.18
2018-09-14T12:44:54.261Z,50.18
2018-09-14T12:45:54.275Z,49.80
2018-09-14T12:46:54.313Z,50.18
2018-09-14T12:47:54.282Z,49.60
2018-09-14T12:48:54.373Z,49.90
2018-09-14T12:49:54.298Z,49.80
2018-09-14T12:50:54.327Z,49.87
2018-09-14T12:51:54.361Z,49.39
2018-09-14T12:52:54.352Z,49.39